sensor_id;sensor_type;location;lat;lon;timestamp;temperature;humidity
17495;DHT22;8864;51.970;4.614;2023-06-26T00:02:18;27.30;59.40
17495;DHT22;8864;51.970;4.614;2023-06-26T00:04:45;27.30;59.60
17495;DHT22;8864;51.970;4.614;2023-06-26T00:07:12;27.20;59.90
17495;DHT22;8864;51.970;4.614;2023-06-26T00:09:40;27.20;60.30
17495;DHT22;8864;51.970;4.614;2023-06-26T00:12:07;27.20;60.70
17495;DHT22;8864;51.970;4.614;2023-06-26T00:14:34;27.20;61.10
17495;DHT22;8864;51.970;4.614;2023-06-26T00:17:01;27.20;61.60
17495;DHT22;8864;51.970;4.614;2023-06-26T00:19:28;27.20;61.90
17495;DHT22;8864;51.970;4.614;2023-06-26T00:21:55;27.20;62.20
17495;DHT22;8864;51.970;4.614;2023-06-26T00:24:22;27.10;62.40
17495;DHT22;8864;51.970;4.614;2023-06-26T00:26:50;27.10;62.60
17495;DHT22;8864;51.970;4.614;2023-06-26T00:29:17;27.10;62.80
17495;DHT22;8864;51.970;4.614;2023-06-26T00:31:44;27.10;62.50
17495;DHT22;8864;51.970;4.614;2023-06-26T00:34:11;27.00;62.00
17495;DHT22;8864;51.970;4.614;2023-06-26T00:36:38;27.00;61.90
17495;DHT22;8864;51.970;4.614;2023-06-26T00:39:05;27.00;62.10
17495;DHT22;8864;51.970;4.614;2023-06-26T00:41:31;26.90;62.00
17495;DHT22;8864;51.970;4.614;2023-06-26T00:44:00;26.90;62.00
17495;DHT22;8864;51.970;4.614;2023-06-26T00:46:27;26.90;62.10
17495;DHT22;8864;51.970;4.614;2023-06-26T00:48:54;26.80;62.00
17495;DHT22;8864;51.970;4.614;2023-06-26T00:51:21;26.70;62.10
17495;DHT22;8864;51.970;4.614;2023-06-26T00:53:49;26.70;62.40
17495;DHT22;8864;51.970;4.614;2023-06-26T00:56:17;26.70;62.60
17495;DHT22;8864;51.970;4.614;2023-06-26T00:58:45;26.60;62.70
17495;DHT22;8864;51.970;4.614;2023-06-26T01:01:14;26.60;63.00
17495;DHT22;8864;51.970;4.614;2023-06-26T01:03:43;26.60;63.20
17495;DHT22;8864;51.970;4.614;2023-06-26T01:06:12;26.60;63.50
17495;DHT22;8864;51.970;4.614;2023-06-26T01:08:41;26.50;63.70
17495;DHT22;8864;51.970;4.614;2023-06-26T01:11:09;26.50;63.80
17495;DHT22;8864;51.970;4.614;2023-06-26T01:13:36;26.50;64.00
17495;DHT22;8864;51.970;4.614;2023-06-26T01:16:04;26.50;64.00
17495;DHT22;8864;51.970;4.614;2023-06-26T01:18:33;26.50;64.20
17495;DHT22;8864;51.970;4.614;2023-06-26T01:21:02;26.50;64.40
17495;DHT22;8864;51.970;4.614;2023-06-26T01:23:35;26.40;64.60
17495;DHT22;8864;51.970;4.614;2023-06-26T01:26:22;26.40;64.60
17495;DHT22;8864;51.970;4.614;2023-06-26T01:28:50;26.40;64.80
17495;DHT22;8864;51.970;4.614;2023-06-26T01:31:19;26.40;65.00
17495;DHT22;8864;51.970;4.614;2023-06-26T01:33:46;26.40;65.10
17495;DHT22;8864;51.970;4.614;2023-06-26T01:36:13;26.40;65.30
17495;DHT22;8864;51.970;4.614;2023-06-26T01:38:40;26.40;65.30
17495;DHT22;8864;51.970;4.614;2023-06-26T01:41:07;26.40;65.50
17495;DHT22;8864;51.970;4.614;2023-06-26T01:43:43;26.40;65.70
17495;DHT22;8864;51.970;4.614;2023-06-26T01:46:20;26.40;65.80
17495;DHT22;8864;51.970;4.614;2023-06-26T01:48:55;26.40;65.90
17495;DHT22;8864;51.970;4.614;2023-06-26T01:51:31;26.30;66.00
17495;DHT22;8864;51.970;4.614;2023-06-26T01:54:00;26.30;66.00
17495;DHT22;8864;51.970;4.614;2023-06-26T01:56:28;26.40;66.10
17495;DHT22;8864;51.970;4.614;2023-06-26T01:58:57;26.30;66.30
17495;DHT22;8864;51.970;4.614;2023-06-26T02:01:26;26.20;66.40
17495;DHT22;8864;51.970;4.614;2023-06-26T02:03:53;26.20;66.60
17495;DHT22;8864;51.970;4.614;2023-06-26T02:06:20;26.20;66.70
17495;DHT22;8864;51.970;4.614;2023-06-26T02:08:47;26.20;66.80
17495;DHT22;8864;51.970;4.614;2023-06-26T02:11:14;26.20;66.90
17495;DHT22;8864;51.970;4.614;2023-06-26T02:13:40;26.10;66.80
17495;DHT22;8864;51.970;4.614;2023-06-26T02:16:09;26.10;66.90
17495;DHT22;8864;51.970;4.614;2023-06-26T02:18:35;26.10;66.90
17495;DHT22;8864;51.970;4.614;2023-06-26T02:21:03;26.20;66.90
17495;DHT22;8864;51.970;4.614;2023-06-26T02:23:30;26.10;66.80
17495;DHT22;8864;51.970;4.614;2023-06-26T02:25:57;26.10;66.80
17495;DHT22;8864;51.970;4.614;2023-06-26T02:28:24;26.10;66.80
17495;DHT22;8864;51.970;4.614;2023-06-26T02:30:51;26.00;67.00
17495;DHT22;8864;51.970;4.614;2023-06-26T02:33:19;25.90;67.20
17495;DHT22;8864;51.970;4.614;2023-06-26T02:35:46;26.00;67.30
17495;DHT22;8864;51.970;4.614;2023-06-26T02:38:15;25.90;67.00
17495;DHT22;8864;51.970;4.614;2023-06-26T02:40:43;25.90;67.00
17495;DHT22;8864;51.970;4.614;2023-06-26T02:43:10;25.90;67.00
17495;DHT22;8864;51.970;4.614;2023-06-26T02:45:37;25.90;67.10
17495;DHT22;8864;51.970;4.614;2023-06-26T02:48:04;25.90;67.00
17495;DHT22;8864;51.970;4.614;2023-06-26T02:50:32;25.80;67.10
17495;DHT22;8864;51.970;4.614;2023-06-26T02:52:59;25.80;67.00
17495;DHT22;8864;51.970;4.614;2023-06-26T02:55:26;25.80;67.30
17495;DHT22;8864;51.970;4.614;2023-06-26T02:57:53;25.80;67.20
17495;DHT22;8864;51.970;4.614;2023-06-26T03:00:20;25.80;67.20
17495;DHT22;8864;51.970;4.614;2023-06-26T03:02:47;25.80;67.20
17495;DHT22;8864;51.970;4.614;2023-06-26T03:05:14;25.70;67.10
17495;DHT22;8864;51.970;4.614;2023-06-26T03:07:42;25.80;67.10
17495;DHT22;8864;51.970;4.614;2023-06-26T03:10:09;25.80;67.00
17495;DHT22;8864;51.970;4.614;2023-06-26T03:12:36;25.80;66.80
17495;DHT22;8864;51.970;4.614;2023-06-26T03:15:03;25.70;66.50
17495;DHT22;8864;51.970;4.614;2023-06-26T03:17:30;25.70;66.60
17495;DHT22;8864;51.970;4.614;2023-06-26T03:19:59;25.70;66.60
17495;DHT22;8864;51.970;4.614;2023-06-26T03:22:25;25.70;66.80
17495;DHT22;8864;51.970;4.614;2023-06-26T03:24:54;25.70;66.50
17495;DHT22;8864;51.970;4.614;2023-06-26T03:27:21;25.70;66.60
17495;DHT22;8864;51.970;4.614;2023-06-26T03:29:48;25.60;66.50
17495;DHT22;8864;51.970;4.614;2023-06-26T03:32:15;25.60;66.50
17495;DHT22;8864;51.970;4.614;2023-06-26T03:34:42;25.50;66.70
17495;DHT22;8864;51.970;4.614;2023-06-26T03:37:09;25.50;66.70
17495;DHT22;8864;51.970;4.614;2023-06-26T03:39:36;25.50;66.70
17495;DHT22;8864;51.970;4.614;2023-06-26T03:42:06;25.50;66.90
17495;DHT22;8864;51.970;4.614;2023-06-26T03:44:34;25.50;66.90
17495;DHT22;8864;51.970;4.614;2023-06-26T03:47:01;25.60;66.80
17495;DHT22;8864;51.970;4.614;2023-06-26T03:49:28;25.60;66.80
17495;DHT22;8864;51.970;4.614;2023-06-26T03:51:55;25.50;66.60
17495;DHT22;8864;51.970;4.614;2023-06-26T03:54:22;25.60;66.60
17495;DHT22;8864;51.970;4.614;2023-06-26T03:56:49;25.60;66.80
17495;DHT22;8864;51.970;4.614;2023-06-26T03:59:17;25.60;66.60
17495;DHT22;8864;51.970;4.614;2023-06-26T04:01:44;25.50;66.50
17495;DHT22;8864;51.970;4.614;2023-06-26T04:04:11;25.50;66.40
17495;DHT22;8864;51.970;4.614;2023-06-26T04:06:38;25.60;66.80
17495;DHT22;8864;51.970;4.614;2023-06-26T04:09:05;25.60;66.60
17495;DHT22;8864;51.970;4.614;2023-06-26T04:11:32;25.60;66.70
17495;DHT22;8864;51.970;4.614;2023-06-26T04:13:59;25.60;66.80
17495;DHT22;8864;51.970;4.614;2023-06-26T04:16:29;25.60;66.50
17495;DHT22;8864;51.970;4.614;2023-06-26T04:18:56;25.60;66.50
17495;DHT22;8864;51.970;4.614;2023-06-26T04:21:23;25.50;66.30
17495;DHT22;8864;51.970;4.614;2023-06-26T04:23:51;25.60;66.50
17495;DHT22;8864;51.970;4.614;2023-06-26T04:26:18;25.50;66.40
17495;DHT22;8864;51.970;4.614;2023-06-26T04:28:45;25.50;66.40
17495;DHT22;8864;51.970;4.614;2023-06-26T04:31:12;25.50;66.50
17495;DHT22;8864;51.970;4.614;2023-06-26T04:33:40;25.50;66.60
17495;DHT22;8864;51.970;4.614;2023-06-26T04:36:07;25.50;66.60
17495;DHT22;8864;51.970;4.614;2023-06-26T04:38:34;25.50;66.60
17495;DHT22;8864;51.970;4.614;2023-06-26T04:41:02;25.60;66.60
17495;DHT22;8864;51.970;4.614;2023-06-26T04:43:29;25.50;66.40
17495;DHT22;8864;51.970;4.614;2023-06-26T04:45:56;25.60;66.50
17495;DHT22;8864;51.970;4.614;2023-06-26T04:48:24;25.60;66.50
17495;DHT22;8864;51.970;4.614;2023-06-26T04:50:56;25.60;66.30
17495;DHT22;8864;51.970;4.614;2023-06-26T04:53:24;25.60;66.40
17495;DHT22;8864;51.970;4.614;2023-06-26T04:55:52;25.60;67.30
17495;DHT22;8864;51.970;4.614;2023-06-26T04:58:20;25.60;66.50
17495;DHT22;8864;51.970;4.614;2023-06-26T05:00:46;25.60;66.30
17495;DHT22;8864;51.970;4.614;2023-06-26T05:03:15;25.60;66.20
17495;DHT22;8864;51.970;4.614;2023-06-26T05:05:42;25.60;66.20
17495;DHT22;8864;51.970;4.614;2023-06-26T05:08:17;25.60;66.00
17495;DHT22;8864;51.970;4.614;2023-06-26T05:10:45;25.60;65.80
17495;DHT22;8864;51.970;4.614;2023-06-26T05:13:12;25.50;66.70
17495;DHT22;8864;51.970;4.614;2023-06-26T05:15:43;25.50;65.70
17495;DHT22;8864;51.970;4.614;2023-06-26T05:18:10;25.50;65.80
17495;DHT22;8864;51.970;4.614;2023-06-26T05:20:38;25.40;66.00
17495;DHT22;8864;51.970;4.614;2023-06-26T05:23:05;25.40;66.00
17495;DHT22;8864;51.970;4.614;2023-06-26T05:25:34;25.40;66.10
17495;DHT22;8864;51.970;4.614;2023-06-26T05:28:01;25.30;66.20
17495;DHT22;8864;51.970;4.614;2023-06-26T05:30:31;25.40;66.40
17495;DHT22;8864;51.970;4.614;2023-06-26T05:33:00;25.30;66.60
17495;DHT22;8864;51.970;4.614;2023-06-26T05:35:29;25.20;66.90
17495;DHT22;8864;51.970;4.614;2023-06-26T05:37:58;25.20;66.90
17495;DHT22;8864;51.970;4.614;2023-06-26T05:40:25;25.20;67.10
17495;DHT22;8864;51.970;4.614;2023-06-26T05:42:54;25.20;67.40
17495;DHT22;8864;51.970;4.614;2023-06-26T05:45:21;25.20;67.10
17495;DHT22;8864;51.970;4.614;2023-06-26T05:47:48;25.20;67.00
17495;DHT22;8864;51.970;4.614;2023-06-26T05:50:17;25.20;66.50
17495;DHT22;8864;51.970;4.614;2023-06-26T05:52:45;25.20;66.20
17495;DHT22;8864;51.970;4.614;2023-06-26T05:55:13;25.20;65.60
17495;DHT22;8864;51.970;4.614;2023-06-26T05:57:40;25.30;65.50
17495;DHT22;8864;51.970;4.614;2023-06-26T06:00:10;25.20;65.10
17495;DHT22;8864;51.970;4.614;2023-06-26T06:02:38;25.10;64.40
17495;DHT22;8864;51.970;4.614;2023-06-26T06:05:05;25.10;64.60
17495;DHT22;8864;51.970;4.614;2023-06-26T06:07:33;25.00;64.40
17495;DHT22;8864;51.970;4.614;2023-06-26T06:10:00;25.10;64.10
17495;DHT22;8864;51.970;4.614;2023-06-26T06:12:27;25.10;63.70
17495;DHT22;8864;51.970;4.614;2023-06-26T06:14:56;25.20;63.30
17495;DHT22;8864;51.970;4.614;2023-06-26T06:17:25;25.10;63.00
17495;DHT22;8864;51.970;4.614;2023-06-26T06:19:52;25.10;62.70
17495;DHT22;8864;51.970;4.614;2023-06-26T06:22:20;25.10;62.70
17495;DHT22;8864;51.970;4.614;2023-06-26T06:24:48;25.00;62.20
17495;DHT22;8864;51.970;4.614;2023-06-26T06:27:15;25.00;62.40
17495;DHT22;8864;51.970;4.614;2023-06-26T06:29:42;25.00;62.40
17495;DHT22;8864;51.970;4.614;2023-06-26T06:32:09;25.00;62.00
17495;DHT22;8864;51.970;4.614;2023-06-26T06:34:37;25.00;62.10
17495;DHT22;8864;51.970;4.614;2023-06-26T06:37:04;25.00;62.00
17495;DHT22;8864;51.970;4.614;2023-06-26T06:39:31;25.00;62.10
17495;DHT22;8864;51.970;4.614;2023-06-26T06:41:58;25.00;61.80
17495;DHT22;8864;51.970;4.614;2023-06-26T06:44:25;25.00;61.80
17495;DHT22;8864;51.970;4.614;2023-06-26T06:46:52;25.00;61.50
17495;DHT22;8864;51.970;4.614;2023-06-26T06:49:19;25.00;61.60
17495;DHT22;8864;51.970;4.614;2023-06-26T06:51:47;25.00;61.50
17495;DHT22;8864;51.970;4.614;2023-06-26T06:54:15;24.90;62.30
17495;DHT22;8864;51.970;4.614;2023-06-26T06:56:43;24.80;61.70
17495;DHT22;8864;51.970;4.614;2023-06-26T06:59:10;24.90;62.10
17495;DHT22;8864;51.970;4.614;2023-06-26T07:01:38;24.90;62.30
17495;DHT22;8864;51.970;4.614;2023-06-26T07:04:05;24.90;62.70
17495;DHT22;8864;51.970;4.614;2023-06-26T07:06:32;25.00;62.40
17495;DHT22;8864;51.970;4.614;2023-06-26T07:09:01;24.90;62.20
17495;DHT22;8864;51.970;4.614;2023-06-26T07:11:28;24.90;62.20
17495;DHT22;8864;51.970;4.614;2023-06-26T07:13:55;25.00;62.30
17495;DHT22;8864;51.970;4.614;2023-06-26T07:16:22;25.00;62.10
17495;DHT22;8864;51.970;4.614;2023-06-26T07:18:49;24.90;62.00
17495;DHT22;8864;51.970;4.614;2023-06-26T07:21:17;24.90;62.20
17495;DHT22;8864;51.970;4.614;2023-06-26T07:23:44;24.90;62.00
17495;DHT22;8864;51.970;4.614;2023-06-26T07:26:14;24.90;62.20
17495;DHT22;8864;51.970;4.614;2023-06-26T07:28:41;25.00;61.80
17495;DHT22;8864;51.970;4.614;2023-06-26T07:31:08;25.00;61.90
17495;DHT22;8864;51.970;4.614;2023-06-26T07:33:35;25.00;61.90
17495;DHT22;8864;51.970;4.614;2023-06-26T07:36:02;24.90;61.80
17495;DHT22;8864;51.970;4.614;2023-06-26T07:38:29;24.90;61.30
17495;DHT22;8864;51.970;4.614;2023-06-26T07:40:56;25.00;61.50
17495;DHT22;8864;51.970;4.614;2023-06-26T07:43:24;24.90;61.40
17495;DHT22;8864;51.970;4.614;2023-06-26T07:45:51;24.90;61.90
17495;DHT22;8864;51.970;4.614;2023-06-26T07:48:19;24.90;62.20
17495;DHT22;8864;51.970;4.614;2023-06-26T07:50:46;25.00;62.50
17495;DHT22;8864;51.970;4.614;2023-06-26T07:53:13;25.00;62.10
17495;DHT22;8864;51.970;4.614;2023-06-26T07:55:40;25.00;62.10
17495;DHT22;8864;51.970;4.614;2023-06-26T07:58:08;25.00;62.10
17495;DHT22;8864;51.970;4.614;2023-06-26T08:00:36;25.00;61.80
17495;DHT22;8864;51.970;4.614;2023-06-26T08:03:04;25.00;61.90
17495;DHT22;8864;51.970;4.614;2023-06-26T08:05:30;25.00;61.90
17495;DHT22;8864;51.970;4.614;2023-06-26T08:07:58;25.00;61.80
17495;DHT22;8864;51.970;4.614;2023-06-26T08:10:25;25.00;61.70
17495;DHT22;8864;51.970;4.614;2023-06-26T08:12:52;25.10;61.80
17495;DHT22;8864;51.970;4.614;2023-06-26T08:15:19;25.10;61.90
17495;DHT22;8864;51.970;4.614;2023-06-26T08:17:47;25.10;61.20
17495;DHT22;8864;51.970;4.614;2023-06-26T08:20:16;25.10;60.50
17495;DHT22;8864;51.970;4.614;2023-06-26T08:22:44;25.00;60.90
17495;DHT22;8864;51.970;4.614;2023-06-26T08:25:13;25.10;61.10
17495;DHT22;8864;51.970;4.614;2023-06-26T08:27:40;25.10;60.90
17495;DHT22;8864;51.970;4.614;2023-06-26T08:30:08;25.00;60.60
17495;DHT22;8864;51.970;4.614;2023-06-26T08:32:35;25.00;60.70
17495;DHT22;8864;51.970;4.614;2023-06-26T08:35:04;25.00;60.20
17495;DHT22;8864;51.970;4.614;2023-06-26T08:37:31;25.00;60.20
17495;DHT22;8864;51.970;4.614;2023-06-26T08:39:58;25.00;60.00
17495;DHT22;8864;51.970;4.614;2023-06-26T08:42:25;24.90;60.20
17495;DHT22;8864;51.970;4.614;2023-06-26T08:44:52;24.90;60.50
17495;DHT22;8864;51.970;4.614;2023-06-26T08:47:19;24.90;60.80
17495;DHT22;8864;51.970;4.614;2023-06-26T08:49:50;25.00;60.70
17495;DHT22;8864;51.970;4.614;2023-06-26T08:52:23;25.00;60.70
17495;DHT22;8864;51.970;4.614;2023-06-26T08:54:54;25.00;60.40
17495;DHT22;8864;51.970;4.614;2023-06-26T08:57:23;25.00;60.70
17495;DHT22;8864;51.970;4.614;2023-06-26T08:59:50;25.00;60.50
17495;DHT22;8864;51.970;4.614;2023-06-26T09:02:18;25.10;60.30
17495;DHT22;8864;51.970;4.614;2023-06-26T09:04:47;25.10;60.30
17495;DHT22;8864;51.970;4.614;2023-06-26T09:07:15;25.10;60.10
17495;DHT22;8864;51.970;4.614;2023-06-26T09:09:44;25.10;60.00
17495;DHT22;8864;51.970;4.614;2023-06-26T09:12:11;25.10;60.00
17495;DHT22;8864;51.970;4.614;2023-06-26T09:14:38;25.10;59.50
17495;DHT22;8864;51.970;4.614;2023-06-26T09:17:05;25.10;59.20
17495;DHT22;8864;51.970;4.614;2023-06-26T09:19:32;25.10;59.50
17495;DHT22;8864;51.970;4.614;2023-06-26T09:22:02;25.00;59.40
17495;DHT22;8864;51.970;4.614;2023-06-26T09:24:30;25.00;58.80
17495;DHT22;8864;51.970;4.614;2023-06-26T09:26:58;25.00;58.70
17495;DHT22;8864;51.970;4.614;2023-06-26T09:29:26;25.00;59.00
17495;DHT22;8864;51.970;4.614;2023-06-26T09:31:56;25.00;59.00
17495;DHT22;8864;51.970;4.614;2023-06-26T09:34:30;25.00;58.60
17495;DHT22;8864;51.970;4.614;2023-06-26T09:36:57;25.00;58.90
17495;DHT22;8864;51.970;4.614;2023-06-26T09:39:24;25.00;59.00
17495;DHT22;8864;51.970;4.614;2023-06-26T09:41:52;25.00;59.20
17495;DHT22;8864;51.970;4.614;2023-06-26T09:44:23;25.00;59.10
17495;DHT22;8864;51.970;4.614;2023-06-26T09:46:50;25.00;58.70
17495;DHT22;8864;51.970;4.614;2023-06-26T09:49:19;25.00;58.40
17495;DHT22;8864;51.970;4.614;2023-06-26T09:51:48;25.00;58.60
17495;DHT22;8864;51.970;4.614;2023-06-26T09:54:16;25.00;58.60
17495;DHT22;8864;51.970;4.614;2023-06-26T09:56:44;25.00;58.70
17495;DHT22;8864;51.970;4.614;2023-06-26T09:59:12;25.00;58.60
17495;DHT22;8864;51.970;4.614;2023-06-26T10:01:46;24.90;58.50
17495;DHT22;8864;51.970;4.614;2023-06-26T10:04:14;24.90;58.80
17495;DHT22;8864;51.970;4.614;2023-06-26T10:06:45;25.00;59.20
17495;DHT22;8864;51.970;4.614;2023-06-26T10:09:14;25.00;59.20
17495;DHT22;8864;51.970;4.614;2023-06-26T10:11:46;25.00;59.10
17495;DHT22;8864;51.970;4.614;2023-06-26T10:14:14;25.00;59.10
17495;DHT22;8864;51.970;4.614;2023-06-26T10:16:43;24.90;59.10
17495;DHT22;8864;51.970;4.614;2023-06-26T10:19:12;25.00;59.30
17495;DHT22;8864;51.970;4.614;2023-06-26T10:21:40;25.00;59.50
17495;DHT22;8864;51.970;4.614;2023-06-26T10:24:08;25.00;58.60
17495;DHT22;8864;51.970;4.614;2023-06-26T10:26:40;25.00;58.60
17495;DHT22;8864;51.970;4.614;2023-06-26T10:29:09;25.00;58.40
17495;DHT22;8864;51.970;4.614;2023-06-26T10:31:38;25.00;58.40
17495;DHT22;8864;51.970;4.614;2023-06-26T10:34:07;24.90;58.40
17495;DHT22;8864;51.970;4.614;2023-06-26T10:36:35;25.00;58.40
17495;DHT22;8864;51.970;4.614;2023-06-26T10:39:04;25.00;58.50
17495;DHT22;8864;51.970;4.614;2023-06-26T10:41:37;25.00;58.50
17495;DHT22;8864;51.970;4.614;2023-06-26T10:44:07;25.00;58.40
17495;DHT22;8864;51.970;4.614;2023-06-26T10:46:48;25.00;58.00
17495;DHT22;8864;51.970;4.614;2023-06-26T10:49:17;25.00;57.40
17495;DHT22;8864;51.970;4.614;2023-06-26T10:51:48;25.10;57.70
17495;DHT22;8864;51.970;4.614;2023-06-26T10:54:16;25.10;57.70
17495;DHT22;8864;51.970;4.614;2023-06-26T10:56:45;25.10;57.60
17495;DHT22;8864;51.970;4.614;2023-06-26T10:59:17;25.10;57.00
17495;DHT22;8864;51.970;4.614;2023-06-26T11:01:45;25.20;57.30
17495;DHT22;8864;51.970;4.614;2023-06-26T11:04:13;25.20;57.00
17495;DHT22;8864;51.970;4.614;2023-06-26T11:06:45;25.20;56.40
17495;DHT22;8864;51.970;4.614;2023-06-26T11:09:17;25.10;56.30
17495;DHT22;8864;51.970;4.614;2023-06-26T11:11:57;25.30;56.60
17495;DHT22;8864;51.970;4.614;2023-06-26T11:14:34;25.20;56.40
17495;DHT22;8864;51.970;4.614;2023-06-26T11:17:05;25.20;57.20
17495;DHT22;8864;51.970;4.614;2023-06-26T11:19:32;25.20;57.00
17495;DHT22;8864;51.970;4.614;2023-06-26T11:22:02;25.20;57.10
17495;DHT22;8864;51.970;4.614;2023-06-26T11:24:31;25.30;57.20
17495;DHT22;8864;51.970;4.614;2023-06-26T11:27:02;25.30;56.70
17495;DHT22;8864;51.970;4.614;2023-06-26T11:29:31;25.30;56.00
17495;DHT22;8864;51.970;4.614;2023-06-26T11:32:01;25.30;56.30
17495;DHT22;8864;51.970;4.614;2023-06-26T11:34:31;25.30;56.00
17495;DHT22;8864;51.970;4.614;2023-06-26T11:37:00;25.30;56.00
17495;DHT22;8864;51.970;4.614;2023-06-26T11:39:30;25.30;55.60
17495;DHT22;8864;51.970;4.614;2023-06-26T11:41:57;25.40;55.70
17495;DHT22;8864;51.970;4.614;2023-06-26T11:44:29;25.40;55.50
17495;DHT22;8864;51.970;4.614;2023-06-26T11:46:56;25.30;55.60
17495;DHT22;8864;51.970;4.614;2023-06-26T11:49:24;25.30;55.90
17495;DHT22;8864;51.970;4.614;2023-06-26T11:51:53;25.30;55.70
17495;DHT22;8864;51.970;4.614;2023-06-26T11:54:29;25.30;55.20
17495;DHT22;8864;51.970;4.614;2023-06-26T11:56:58;25.30;54.90
17495;DHT22;8864;51.970;4.614;2023-06-26T11:59:33;25.30;55.20
17495;DHT22;8864;51.970;4.614;2023-06-26T12:02:00;25.30;55.10
17495;DHT22;8864;51.970;4.614;2023-06-26T12:04:31;25.30;54.60
17495;DHT22;8864;51.970;4.614;2023-06-26T12:06:58;25.30;54.10
17495;DHT22;8864;51.970;4.614;2023-06-26T12:09:27;25.30;54.30
17495;DHT22;8864;51.970;4.614;2023-06-26T12:11:55;25.30;53.70
17495;DHT22;8864;51.970;4.614;2023-06-26T12:14:24;25.40;54.10
17495;DHT22;8864;51.970;4.614;2023-06-26T12:16:53;25.40;54.40
17495;DHT22;8864;51.970;4.614;2023-06-26T12:19:24;25.40;54.50
17495;DHT22;8864;51.970;4.614;2023-06-26T12:21:52;25.40;54.30
17495;DHT22;8864;51.970;4.614;2023-06-26T12:24:22;25.40;54.10
17495;DHT22;8864;51.970;4.614;2023-06-26T12:26:54;25.40;54.20
17495;DHT22;8864;51.970;4.614;2023-06-26T12:29:29;25.40;53.50
17495;DHT22;8864;51.970;4.614;2023-06-26T12:31:56;25.40;53.70
17495;DHT22;8864;51.970;4.614;2023-06-26T12:34:27;25.40;53.30
17495;DHT22;8864;51.970;4.614;2023-06-26T12:37:00;25.40;53.60
17495;DHT22;8864;51.970;4.614;2023-06-26T12:39:27;25.40;53.70
17495;DHT22;8864;51.970;4.614;2023-06-26T12:41:59;25.40;53.60
17495;DHT22;8864;51.970;4.614;2023-06-26T12:44:27;25.40;54.00
17495;DHT22;8864;51.970;4.614;2023-06-26T12:46:56;25.40;53.50
17495;DHT22;8864;51.970;4.614;2023-06-26T12:49:30;25.40;53.80
17495;DHT22;8864;51.970;4.614;2023-06-26T12:51:58;25.50;54.10
17495;DHT22;8864;51.970;4.614;2023-06-26T12:54:25;25.50;54.30
17495;DHT22;8864;51.970;4.614;2023-06-26T12:56:52;25.50;54.50
17495;DHT22;8864;51.970;4.614;2023-06-26T12:59:20;25.50;54.20
17495;DHT22;8864;51.970;4.614;2023-06-26T13:01:47;25.60;53.80
17495;DHT22;8864;51.970;4.614;2023-06-26T13:04:14;25.60;53.80
17495;DHT22;8864;51.970;4.614;2023-06-26T13:06:43;25.60;53.90
17495;DHT22;8864;51.970;4.614;2023-06-26T13:09:10;25.60;54.10
17495;DHT22;8864;51.970;4.614;2023-06-26T13:11:37;25.60;54.10
17495;DHT22;8864;51.970;4.614;2023-06-26T13:14:04;25.60;53.40
17495;DHT22;8864;51.970;4.614;2023-06-26T13:16:33;25.60;53.60
17495;DHT22;8864;51.970;4.614;2023-06-26T13:19:00;25.60;54.20
17495;DHT22;8864;51.970;4.614;2023-06-26T13:21:27;25.60;54.10
17495;DHT22;8864;51.970;4.614;2023-06-26T13:23:55;25.60;54.30
17495;DHT22;8864;51.970;4.614;2023-06-26T13:26:22;25.60;53.70
17495;DHT22;8864;51.970;4.614;2023-06-26T13:28:49;25.60;54.00
17495;DHT22;8864;51.970;4.614;2023-06-26T13:31:16;25.60;53.60
17495;DHT22;8864;51.970;4.614;2023-06-26T13:33:46;25.60;53.70
17495;DHT22;8864;51.970;4.614;2023-06-26T13:36:14;25.60;54.00
17495;DHT22;8864;51.970;4.614;2023-06-26T13:38:42;25.60;54.30
17495;DHT22;8864;51.970;4.614;2023-06-26T13:41:09;25.60;54.40
17495;DHT22;8864;51.970;4.614;2023-06-26T13:43:36;25.60;54.50
17495;DHT22;8864;51.970;4.614;2023-06-26T13:46:03;25.70;54.40
17495;DHT22;8864;51.970;4.614;2023-06-26T13:48:30;25.70;54.30
17495;DHT22;8864;51.970;4.614;2023-06-26T13:50:59;25.70;54.20
17495;DHT22;8864;51.970;4.614;2023-06-26T13:53:27;25.70;53.50
17495;DHT22;8864;51.970;4.614;2023-06-26T13:55:54;25.70;52.60
17495;DHT22;8864;51.970;4.614;2023-06-26T13:58:20;25.70;53.10
17495;DHT22;8864;51.970;4.614;2023-06-26T14:00:48;25.70;53.20
17495;DHT22;8864;51.970;4.614;2023-06-26T14:03:15;25.80;52.80
17495;DHT22;8864;51.970;4.614;2023-06-26T14:05:43;25.70;52.80
17495;DHT22;8864;51.970;4.614;2023-06-26T14:08:12;25.70;52.60
17495;DHT22;8864;51.970;4.614;2023-06-26T14:10:39;25.70;52.40
17495;DHT22;8864;51.970;4.614;2023-06-26T14:13:06;25.80;52.50
17495;DHT22;8864;51.970;4.614;2023-06-26T14:15:34;25.80;52.60
17495;DHT22;8864;51.970;4.614;2023-06-26T14:18:02;25.80;52.70
17495;DHT22;8864;51.970;4.614;2023-06-26T14:20:29;25.80;52.80
17495;DHT22;8864;51.970;4.614;2023-06-26T14:22:58;25.80;52.90
17495;DHT22;8864;51.970;4.614;2023-06-26T14:25:27;25.80;52.50
17495;DHT22;8864;51.970;4.614;2023-06-26T14:27:55;25.80;52.90
17495;DHT22;8864;51.970;4.614;2023-06-26T14:30:22;25.90;52.50
17495;DHT22;8864;51.970;4.614;2023-06-26T14:32:50;25.90;52.60
17495;DHT22;8864;51.970;4.614;2023-06-26T14:35:17;25.90;52.40
17495;DHT22;8864;51.970;4.614;2023-06-26T14:37:44;26.00;52.40
17495;DHT22;8864;51.970;4.614;2023-06-26T14:40:12;26.00;52.40
17495;DHT22;8864;51.970;4.614;2023-06-26T14:42:40;26.00;52.50
17495;DHT22;8864;51.970;4.614;2023-06-26T14:45:09;26.00;52.50
17495;DHT22;8864;51.970;4.614;2023-06-26T14:47:36;26.00;52.40
17495;DHT22;8864;51.970;4.614;2023-06-26T14:50:04;26.00;51.80
17495;DHT22;8864;51.970;4.614;2023-06-26T14:52:31;26.00;51.80
17495;DHT22;8864;51.970;4.614;2023-06-26T14:54:58;26.00;51.50
17495;DHT22;8864;51.970;4.614;2023-06-26T14:57:26;26.00;51.40
17495;DHT22;8864;51.970;4.614;2023-06-26T14:59:54;26.00;51.40
17495;DHT22;8864;51.970;4.614;2023-06-26T15:02:21;26.00;51.80
17495;DHT22;8864;51.970;4.614;2023-06-26T15:04:48;26.00;52.00
17495;DHT22;8864;51.970;4.614;2023-06-26T15:07:14;26.00;52.20
17495;DHT22;8864;51.970;4.614;2023-06-26T15:09:41;26.10;51.60
17495;DHT22;8864;51.970;4.614;2023-06-26T15:12:08;26.10;51.20
17495;DHT22;8864;51.970;4.614;2023-06-26T15:14:35;26.00;51.20
17495;DHT22;8864;51.970;4.614;2023-06-26T15:17:04;26.00;51.50
17495;DHT22;8864;51.970;4.614;2023-06-26T15:19:32;26.00;51.70
17495;DHT22;8864;51.970;4.614;2023-06-26T15:21:59;26.00;51.40
17495;DHT22;8864;51.970;4.614;2023-06-26T15:24:26;26.00;51.80
17495;DHT22;8864;51.970;4.614;2023-06-26T15:26:53;26.00;51.70
17495;DHT22;8864;51.970;4.614;2023-06-26T15:29:20;26.00;51.80
17495;DHT22;8864;51.970;4.614;2023-06-26T15:31:47;26.00;51.90
17495;DHT22;8864;51.970;4.614;2023-06-26T15:34:15;26.10;52.20
17495;DHT22;8864;51.970;4.614;2023-06-26T15:36:42;26.10;52.20
17495;DHT22;8864;51.970;4.614;2023-06-26T15:39:10;26.10;52.40
17495;DHT22;8864;51.970;4.614;2023-06-26T15:41:37;26.10;52.60
17495;DHT22;8864;51.970;4.614;2023-06-26T15:44:04;26.10;51.20
17495;DHT22;8864;51.970;4.614;2023-06-26T15:46:31;26.10;51.70
17495;DHT22;8864;51.970;4.614;2023-06-26T15:48:57;26.10;51.90
17495;DHT22;8864;51.970;4.614;2023-06-26T15:51:26;26.10;51.80